Time;durP1;ratioP1;P1;durP2;ratioP2;P2;SDS_P1;SDS_P2;PMS_P1;PMS_P2;Temp;Humidity;BMP_temperature;BMP_pressure;BME280_temperature;BME280_humidity;BME280_pressure;Samples;Min_cycle;Max_cycle;Signal;HPM_P1;HPM_P2
2022/12/20 00:00:00;;;;;;;21.95;15.15;;;5.60;99.90;;;;;;5010636;28;20037;-53
2022/12/20 00:02:46;;;;;;;23.20;15.23;;;5.50;99.90;;;;;;5023354;28;20297;-53
2022/12/20 00:05:36;;;;;;;26.55;15.95;;;5.50;99.90;;;;;;5018833;28;20030;-54
2022/12/20 00:08:21;;;;;;;23.65;16.10;;;5.50;99.90;;;;;;5022813;28;20030;-55
2022/12/20 00:11:08;;;;;;;24.67;15.38;;;5.50;99.90;;;;;;4993529;28;20050;-50
2022/12/20 00:13:55;;;;;;;24.45;15.85;;;5.60;99.90;;;;;;5008678;28;20414;-56
2022/12/20 00:16:41;;;;;;;25.40;16.77;;;5.60;99.90;;;;;;5017083;28;20092;-55
2022/12/20 00:19:26;;;;;;;25.30;16.55;;;5.60;99.90;;;;;;5013642;28;20034;-56
2022/12/20 00:22:12;;;;;;;24.27;16.75;;;5.60;99.90;;;;;;5016357;28;20090;-57
2022/12/20 00:24:58;;;;;;;28.83;18.15;;;5.60;99.90;;;;;;5016802;28;20505;-54
2022/12/20 00:27:44;;;;;;;25.60;18.13;;;5.60;99.90;;;;;;5022542;28;20530;-55
2022/12/20 00:30:30;;;;;;;28.95;18.40;;;5.60;99.90;;;;;;5028594;28;20070;-55
2022/12/20 00:33:16;;;;;;;29.02;19.40;;;5.60;99.90;;;;;;5010932;28;20072;-56
2022/12/20 00:36:03;;;;;;;29.92;18.90;;;5.60;99.90;;;;;;5009774;28;20037;-53
2022/12/20 00:38:52;;;;;;;25.65;18.50;;;5.60;99.90;;;;;;5015152;28;20037;-55
2022/12/20 00:41:38;;;;;;;26.05;18.30;;;5.70;99.90;;;;;;5007601;28;20037;-58
2022/12/20 00:44:24;;;;;;;26.50;18.73;;;5.60;99.90;;;;;;5018673;28;20037;-56
2022/12/20 00:47:10;;;;;;;28.45;18.25;;;5.60;99.90;;;;;;5017660;28;20084;-57
2022/12/20 00:49:56;;;;;;;26.17;17.80;;;5.50;99.90;;;;;;5018554;28;20506;-56
2022/12/20 00:52:42;;;;;;;26.98;18.55;;;5.50;99.90;;;;;;5029816;28;20173;-57
2022/12/20 00:55:28;;;;;;;25.55;17.45;;;5.50;99.90;;;;;;5017329;28;20034;-56
2022/12/20 00:58:14;;;;;;;27.10;18.25;;;5.40;99.90;;;;;;5031188;28;20033;-59
2022/12/20 01:01:00;;;;;;;27.85;18.92;;;5.50;99.90;;;;;;5016288;28;20026;-56
2022/12/20 01:03:46;;;;;;;27.63;16.85;;;5.40;99.90;;;;;;5017115;28;20057;-57
2022/12/20 01:06:32;;;;;;;27.52;18.15;;;5.40;99.90;;;;;;5032649;28;20108;-54
2022/12/20 01:09:18;;;;;;;26.55;17.55;;;5.50;99.90;;;;;;4983036;28;20023;-52
2022/12/20 01:12:04;;;;;;;27.02;18.45;;;5.50;99.90;;;;;;4997517;28;20085;-54
2022/12/20 01:14:50;;;;;;;25.75;17.23;;;5.50;99.90;;;;;;5013579;28;20061;-52
2022/12/20 01:17:36;;;;;;;24.27;17.65;;;5.40;99.90;;;;;;4985888;28;20034;-55
2022/12/20 01:20:22;;;;;;;26.58;17.45;;;5.40;99.90;;;;;;5012830;28;20032;-56
2022/12/20 01:23:08;;;;;;;26.00;17.08;;;5.40;99.90;;;;;;5013979;28;20026;-54
2022/12/20 01:25:56;;;;;;;26.35;17.30;;;5.40;99.90;;;;;;5023710;28;20065;-46
2022/12/20 01:28:43;;;;;;;24.80;17.48;;;5.40;99.90;;;;;;5014383;28;20057;-50
2022/12/20 01:31:29;;;;;;;23.90;17.05;;;5.50;99.90;;;;;;5013396;28;20030;-45
2022/12/20 01:34:16;;;;;;;25.80;17.95;;;5.50;99.90;;;;;;5024480;28;20026;-45
2022/12/20 01:37:02;;;;;;;23.45;17.02;;;5.50;99.90;;;;;;5031410;28;20057;-56
2022/12/20 01:39:48;;;;;;;25.77;17.30;;;5.50;99.90;;;;;;5031900;28;20091;-45
2022/12/20 01:42:34;;;;;;;26.05;17.63;;;5.50;99.90;;;;;;5007173;28;20045;-46
2022/12/20 01:45:27;;;;;;;27.50;18.85;;;5.50;99.90;;;;;;5030776;28;20112;-44
2022/12/20 01:48:21;;;;;;;25.35;17.60;;;5.60;99.90;;;;;;5032473;28;20131;-46
2022/12/20 01:51:08;;;;;;;25.52;17.08;;;5.60;99.90;;;;;;5011911;28;20521;-48
2022/12/20 01:54:00;;;;;;;22.33;15.90;;;5.60;99.90;;;;;;4992882;28;20050;-45
2022/12/20 01:56:53;;;;;;;25.10;16.73;;;5.70;99.90;;;;;;5000130;28;20034;-45
2022/12/20 01:59:42;;;;;;;21.92;15.23;;;5.80;99.90;;;;;;5014007;28;20034;-52
2022/12/20 02:02:29;;;;;;;25.02;16.17;;;5.90;99.90;;;;;;5013417;28;20112;-49
2022/12/20 02:05:17;;;;;;;26.40;15.65;;;5.90;99.90;;;;;;5018664;28;20420;-48
2022/12/20 02:08:04;;;;;;;25.13;16.60;;;5.90;99.90;;;;;;5010707;28;20030;-56
2022/12/20 02:11:15;;;;;;;23.95;17.10;;;6.00;99.90;;;;;;5009033;28;20056;-49
2022/12/20 02:14:35;;;;;;;26.80;19.42;;;5.90;99.90;;;;;;4997377;28;20037;-55
2022/12/20 02:17:27;;;;;;;25.98;17.88;;;5.90;99.90;;;;;;5026086;28;20052;-46
2022/12/20 02:20:19;;;;;;;29.42;19.13;;;5.90;99.90;;;;;;5031188;28;20026;-51
2022/12/20 02:23:29;;;;;;;26.45;17.58;;;6.00;99.90;;;;;;5011541;28;20117;-50
2022/12/20 02:26:44;;;;;;;27.42;18.30;;;6.00;99.90;;;;;;5008421;28;20030;-52
2022/12/20 02:29:42;;;;;;;26.70;18.50;;;6.00;99.90;;;;;;5009658;28;20108;-53
2022/12/20 02:32:33;;;;;;;27.73;19.63;;;6.00;99.90;;;;;;5009020;28;20507;-53
2022/12/20 02:35:23;;;;;;;28.05;19.65;;;6.00;99.90;;;;;;5009954;28;20029;-45
2022/12/20 02:38:32;;;;;;;27.15;19.33;;;6.00;99.90;;;;;;4997622;28;20065;-46
2022/12/20 02:41:24;;;;;;;25.88;17.60;;;5.90;99.90;;;;;;5006778;28;20450;-50
2022/12/20 02:47:24;;;;;;;26.05;17.23;;;5.80;99.90;;;;;;5012633;28;20030;-47
2022/12/20 02:50:11;;;;;;;26.67;16.77;;;5.80;99.90;;;;;;5009829;28;20026;-46
2022/12/20 02:52:59;;;;;;;24.77;16.50;;;5.80;99.90;;;;;;5007269;28;20117;-49
2022/12/20 02:55:46;;;;;;;24.35;16.98;;;5.80;99.90;;;;;;5010605;28;20034;-49
2022/12/20 02:58:46;;;;;;;30.83;19.65;;;5.90;99.90;;;;;;5009944;28;20037;-50
2022/12/20 03:01:40;;;;;;;23.02;17.05;;;5.80;99.90;;;;;;5008848;28;20068;-48
2022/12/20 03:04:29;;;;;;;23.15;17.27;;;5.90;99.90;;;;;;5009485;28;20081;-50
2022/12/20 03:07:15;;;;;;;25.25;17.65;;;6.00;99.90;;;;;;5010514;28;20411;-52
2022/12/20 03:10:01;;;;;;;24.63;16.75;;;6.10;99.90;;;;;;4995029;28;20030;-46
2022/12/20 03:12:47;;;;;;;25.70;17.15;;;6.10;99.90;;;;;;5008482;28;20080;-46
2022/12/20 03:15:33;;;;;;;28.92;18.35;;;6.20;99.90;;;;;;5007666;28;20030;-48
2022/12/20 03:18:20;;;;;;;23.75;16.75;;;6.20;99.90;;;;;;5008437;28;20033;-48
2022/12/20 03:21:06;;;;;;;23.35;16.38;;;6.20;99.90;;;;;;5007554;28;20023;-51
2022/12/20 03:23:52;;;;;;;25.70;16.27;;;6.20;99.90;;;;;;5000723;28;20034;-46
2022/12/20 03:26:39;;;;;;;26.65;16.73;;;6.20;99.90;;;;;;5009818;28;20033;-47
2022/12/20 03:29:25;;;;;;;22.33;15.25;;;6.10;99.90;;;;;;5010661;28;20026;-46
2022/12/20 03:32:12;;;;;;;22.67;16.35;;;6.10;99.90;;;;;;5004420;28;20041;-50
2022/12/20 03:34:57;;;;;;;21.63;15.10;;;6.10;99.90;;;;;;4991931;28;20026;-49
2022/12/20 03:37:44;;;;;;;23.20;16.00;;;6.10;99.90;;;;;;5008702;28;20034;-53
2022/12/20 03:40:29;;;;;;;21.23;15.93;;;6.10;99.90;;;;;;5010482;28;20395;-52
2022/12/20 03:43:15;;;;;;;22.40;15.65;;;6.10;99.90;;;;;;5005467;28;20026;-45
2022/12/20 03:46:02;;;;;;;22.23;16.50;;;6.00;99.90;;;;;;5002226;28;20030;-45
2022/12/20 03:48:48;;;;;;;20.58;15.00;;;6.10;99.90;;;;;;5002364;28;20045;-52
2022/12/20 03:51:34;;;;;;;22.33;16.73;;;6.10;99.90;;;;;;5020994;28;20033;-54
2022/12/20 03:54:20;;;;;;;22.83;15.65;;;6.10;99.90;;;;;;5011938;28;20034;-45
2022/12/20 03:57:06;;;;;;;23.60;17.00;;;6.10;99.90;;;;;;5017324;28;20120;-49
2022/12/20 03:59:53;;;;;;;25.27;16.98;;;6.20;99.90;;;;;;5010603;28;20030;-47
2022/12/20 04:02:39;;;;;;;22.95;16.33;;;6.30;99.90;;;;;;5025962;28;20041;-49
2022/12/20 04:05:25;;;;;;;22.75;16.00;;;6.30;99.90;;;;;;5030987;28;20022;-49
2022/12/20 04:08:11;;;;;;;23.35;17.02;;;6.40;99.90;;;;;;4990554;28;20042;-51
2022/12/20 04:11:15;;;;;;;21.50;15.70;;;6.40;99.90;;;;;;5017237;28;20037;-47
2022/12/20 04:14:01;;;;;;;24.83;16.73;;;6.40;99.90;;;;;;5011335;28;20033;-45
2022/12/20 04:16:47;;;;;;;24.42;16.85;;;6.40;99.90;;;;;;4999966;28;20029;-49
2022/12/20 04:19:33;;;;;;;24.42;16.30;;;6.40;99.90;;;;;;5010988;28;20022;-49
2022/12/20 04:22:19;;;;;;;25.50;16.50;;;6.40;99.90;;;;;;4989696;28;20034;-52
2022/12/20 04:25:05;;;;;;;20.88;16.33;;;6.40;99.90;;;;;;5023592;28;20026;-51
2022/12/20 04:27:51;;;;;;;25.00;16.98;;;6.40;99.90;;;;;;5018365;28;20048;-50
2022/12/20 04:30:37;;;;;;;23.27;17.05;;;6.40;99.90;;;;;;4975932;28;20034;-49
2022/12/20 04:33:26;;;;;;;24.15;16.42;;;6.40;99.90;;;;;;4993713;28;20113;-53
2022/12/20 04:36:12;;;;;;;24.23;16.52;;;6.40;99.90;;;;;;5028379;28;20044;-48
2022/12/20 04:38:58;;;;;;;22.15;16.25;;;6.50;99.90;;;;;;5024771;28;20041;-46
2022/12/20 04:41:44;;;;;;;23.15;16.80;;;6.50;99.90;;;;;;5009754;28;20030;-60
2022/12/20 04:44:30;;;;;;;31.55;23.23;;;6.50;99.90;;;;;;5019140;28;20036;-48
2022/12/20 04:47:16;;;;;;;28.00;17.38;;;6.40;99.90;;;;;;5028876;28;20144;-49
2022/12/20 04:50:02;;;;;;;25.50;18.88;;;6.40;99.90;;;;;;5019248;28;20034;-50
2022/12/20 04:55:52;;;;;;;24.58;17.40;;;6.40;99.90;;;;;;5013655;28;20038;-47
2022/12/20 04:58:38;;;;;;;25.77;16.67;;;6.40;99.90;;;;;;5013273;28;20499;-51
2022/12/20 05:01:24;;;;;;;25.08;16.80;;;6.40;99.90;;;;;;4994364;28;20058;-55
2022/12/20 05:04:10;;;;;;;23.50;16.67;;;6.40;99.90;;;;;;5013926;28;20495;-50
2022/12/20 05:06:56;;;;;;;22.90;16.05;;;6.40;99.90;;;;;;5014064;28;20510;-52
2022/12/20 05:09:42;;;;;;;22.52;15.57;;;6.40;99.90;;;;;;5033863;28;20560;-56
2022/12/20 05:12:28;;;;;;;21.13;15.85;;;6.50;99.90;;;;;;5018601;28;20549;-52
2022/12/20 05:15:14;;;;;;;23.95;16.23;;;6.50;99.90;;;;;;5013809;28;20030;-45
2022/12/20 05:18:00;;;;;;;21.90;15.85;;;6.50;99.90;;;;;;5031639;28;20056;-52
2022/12/20 05:20:46;;;;;;;24.25;15.95;;;6.50;99.90;;;;;;5033045;28;20188;-52
2022/12/20 05:26:37;;;;;;;23.63;15.93;;;6.60;99.90;;;;;;5005846;28;20028;-57
2022/12/20 05:29:23;;;;;;;19.52;15.05;;;6.80;99.90;;;;;;5033279;28;20026;-55
2022/12/20 05:32:09;;;;;;;22.27;15.75;;;6.80;99.90;;;;;;5013372;28;20037;-57
2022/12/20 05:34:54;;;;;;;21.73;16.40;;;6.90;99.90;;;;;;5014007;28;20037;-45
2022/12/20 05:37:40;;;;;;;25.30;16.10;;;7.00;99.90;;;;;;5013420;28;20034;-45
2022/12/20 05:40:26;;;;;;;21.20;15.35;;;7.10;99.90;;;;;;5009992;28;20048;-43
2022/12/20 05:43:12;;;;;;;18.40;14.50;;;7.30;99.90;;;;;;4993690;28;20026;-46
2022/12/20 05:45:59;;;;;;;23.70;15.55;;;7.20;99.90;;;;;;4999838;28;20037;-45
2022/12/20 05:48:45;;;;;;;22.17;15.68;;;7.20;99.90;;;;;;5010091;28;20403;-45
2022/12/20 05:51:31;;;;;;;22.75;16.60;;;7.10;99.90;;;;;;4992853;28;20038;-49
2022/12/20 05:54:17;;;;;;;25.48;18.48;;;7.00;99.90;;;;;;4997936;28;20042;-45
2022/12/20 05:57:03;;;;;;;26.63;19.20;;;7.00;99.90;;;;;;5012983;28;20113;-54
2022/12/20 05:59:49;;;;;;;27.30;18.70;;;7.00;99.90;;;;;;5003318;28;20029;-48
2022/12/20 06:02:35;;;;;;;23.27;17.83;;;6.90;99.90;;;;;;5013191;28;20041;-51
2022/12/20 06:05:20;;;;;;;24.00;17.00;;;6.90;99.90;;;;;;5015769;28;20030;-48
2022/12/20 06:08:07;;;;;;;22.27;16.52;;;7.00;99.90;;;;;;5014005;28;20025;-48
2022/12/20 06:10:53;;;;;;;20.95;14.63;;;7.00;99.90;;;;;;5030279;28;20030;-49
2022/12/20 06:13:39;;;;;;;20.45;15.43;;;7.00;99.90;;;;;;5032588;28;20571;-48
2022/12/20 06:16:25;;;;;;;19.27;14.48;;;7.00;99.90;;;;;;4992784;28;20197;-48
2022/12/20 06:19:11;;;;;;;18.95;13.45;;;7.00;99.90;;;;;;4975990;28;20018;-48
2022/12/20 06:21:56;;;;;;;21.75;14.02;;;7.00;99.90;;;;;;5023314;28;20029;-52
2022/12/20 06:24:42;;;;;;;19.08;14.95;;;6.90;99.90;;;;;;5024072;28;20022;-53
2022/12/20 06:27:28;;;;;;;19.35;14.02;;;6.90;99.90;;;;;;5012068;28;20106;-51
2022/12/20 06:30:15;;;;;;;19.92;13.90;;;6.80;99.90;;;;;;5021996;28;20049;-52
2022/12/20 06:33:02;;;;;;;21.17;14.98;;;6.80;99.90;;;;;;5022642;28;20041;-52
2022/12/20 06:35:51;;;;;;;21.88;15.10;;;6.80;99.90;;;;;;5013754;28;20033;-53
2022/12/20 06:38:37;;;;;;;19.98;14.63;;;6.80;99.90;;;;;;5010348;28;20029;-53
2022/12/20 06:41:23;;;;;;;20.35;14.88;;;6.80;99.90;;;;;;5032456;28;20422;-54
2022/12/20 06:44:09;;;;;;;23.25;16.33;;;6.80;99.90;;;;;;5016852;28;20759;-50
2022/12/20 06:46:55;;;;;;;19.08;15.02;;;6.80;99.90;;;;;;5014883;28;20120;-51
2022/12/20 06:49:41;;;;;;;25.20;15.23;;;6.80;99.90;;;;;;5010798;28;20034;-48
2022/12/20 06:52:27;;;;;;;23.65;16.23;;;6.80;99.90;;;;;;5012062;28;20065;-55
2022/12/20 06:55:13;;;;;;;22.15;15.15;;;6.80;99.90;;;;;;5030530;28;20496;-50
2022/12/20 06:57:59;;;;;;;23.55;15.57;;;6.80;99.90;;;;;;5025334;28;20025;-45
2022/12/20 07:00:45;;;;;;;24.77;17.70;;;6.80;99.90;;;;;;5014238;28;20113;-45
2022/12/20 07:03:31;;;;;;;21.92;16.10;;;6.80;99.90;;;;;;5015914;28;20403;-50
2022/12/20 07:06:17;;;;;;;23.15;15.32;;;6.80;99.90;;;;;;5011986;28;20037;-51
2022/12/20 07:09:03;;;;;;;20.85;15.95;;;6.80;99.90;;;;;;5011336;28;20030;-48
2022/12/20 07:11:49;;;;;;;22.70;16.25;;;6.80;99.90;;;;;;5014188;28;20509;-48
2022/12/20 07:14:35;;;;;;;20.33;15.25;;;6.80;99.90;;;;;;5011167;28;20406;-46
2022/12/20 07:17:21;;;;;;;24.80;16.48;;;6.80;99.90;;;;;;5029492;28;20420;-45
2022/12/20 07:20:07;;;;;;;22.27;16.15;;;6.80;99.90;;;;;;5014083;28;20524;-47
2022/12/20 07:22:53;;;;;;;24.30;16.58;;;6.70;99.90;;;;;;5001272;28;20042;-47
2022/12/20 07:25:39;;;;;;;23.38;16.75;;;6.70;99.90;;;;;;5015592;28;20030;-47
2022/12/20 07:28:26;;;;;;;23.35;16.80;;;6.70;99.90;;;;;;5017743;28;20104;-45
2022/12/20 07:31:12;;;;;;;25.75;18.30;;;6.60;99.90;;;;;;5012106;28;20106;-52
2022/12/20 07:33:58;;;;;;;24.58;17.52;;;6.50;99.90;;;;;;5011450;28;20053;-56
2022/12/20 07:36:44;;;;;;;21.55;15.57;;;6.90;99.90;;;;;;5023652;28;20078;-50
2022/12/20 07:39:30;;;;;;;21.42;14.63;;;7.20;99.90;;;;;;5031030;28;20029;-54
2022/12/20 07:42:17;;;;;;;24.00;15.68;;;7.10;99.90;;;;;;5014145;28;20033;-46
2022/12/20 07:45:03;;;;;;;24.70;16.10;;;7.00;99.90;;;;;;5010603;28;20226;-48
2022/12/20 07:47:49;;;;;;;24.40;16.33;;;6.80;99.90;;;;;;4995578;28;20037;-45
2022/12/20 07:50:35;;;;;;;23.92;16.70;;;6.70;99.90;;;;;;5008914;28;20030;-46
2022/12/20 07:53:24;;;;;;;23.42;15.77;;;6.70;99.90;;;;;;5002327;28;20042;-46
2022/12/20 07:56:11;;;;;;;22.13;14.93;;;6.60;99.90;;;;;;5011161;28;20068;-52
2022/12/20 07:58:59;;;;;;;24.63;16.58;;;6.50;99.90;;;;;;5011225;28;20454;-46
2022/12/20 08:01:46;;;;;;;21.83;15.55;;;6.60;99.90;;;;;;5009738;28;20022;-48
2022/12/20 08:04:33;;;;;;;22.65;15.52;;;6.60;99.90;;;;;;5012160;28;20026;-54
2022/12/20 08:07:19;;;;;;;21.85;16.13;;;6.60;99.90;;;;;;5012167;28;20036;-49
2022/12/20 08:10:08;;;;;;;21.50;15.30;;;6.60;99.90;;;;;;5025068;28;20030;-47
2022/12/20 08:12:54;;;;;;;23.63;17.13;;;6.60;99.90;;;;;;5025897;28;20530;-46
2022/12/20 08:15:40;;;;;;;19.90;15.73;;;6.60;99.90;;;;;;5010854;28;20117;-50
2022/12/20 08:18:26;;;;;;;23.63;15.63;;;6.70;99.90;;;;;;4996512;28;20026;-56
2022/12/20 08:21:13;;;;;;;23.40;15.60;;;6.70;99.90;;;;;;5011232;28;20030;-53
2022/12/20 08:23:59;;;;;;;22.92;15.38;;;6.70;99.90;;;;;;4983785;28;20033;-54
2022/12/20 08:26:45;;;;;;;22.73;15.65;;;6.80;99.90;;;;;;5014753;28;20486;-54
2022/12/20 08:29:31;;;;;;;21.40;16.42;;;6.80;99.90;;;;;;5014886;28;20502;-55
2022/12/20 08:32:17;;;;;;;20.60;14.13;;;6.80;99.90;;;;;;5013103;28;20532;-53
2022/12/20 08:35:04;;;;;;;20.23;14.57;;;6.80;99.90;;;;;;5000296;28;20032;-54
2022/12/20 08:37:52;;;;;;;21.42;14.73;;;6.80;99.90;;;;;;5014366;28;20101;-53
2022/12/20 08:40:38;;;;;;;22.40;15.35;;;6.80;99.90;;;;;;5013614;28;20037;-54
2022/12/20 08:43:24;;;;;;;25.73;17.40;;;6.80;99.90;;;;;;5014555;28;20037;-55
2022/12/20 08:46:13;;;;;;;29.08;20.55;;;6.80;99.90;;;;;;4999600;28;20108;-51
2022/12/20 08:48:59;;;;;;;26.33;18.73;;;6.80;99.90;;;;;;5014726;28;20061;-51
2022/12/20 08:51:45;;;;;;;22.77;15.90;;;6.70;99.90;;;;;;5014534;28;20034;-47
2022/12/20 08:54:31;;;;;;;25.10;16.00;;;6.60;99.90;;;;;;5015268;28;20113;-47
2022/12/20 08:57:17;;;;;;;23.52;15.90;;;6.60;99.90;;;;;;5014382;28;20041;-49
2022/12/20 09:00:04;;;;;;;21.65;15.75;;;6.60;99.90;;;;;;5010453;28;20030;-51
2022/12/20 09:02:50;;;;;;;23.00;16.45;;;6.60;99.90;;;;;;5012815;28;20086;-45
2022/12/20 09:05:42;;;;;;;22.25;16.42;;;6.60;99.90;;;;;;5013569;28;20075;-52
2022/12/20 09:08:28;;;;;;;25.05;16.80;;;6.60;99.90;;;;;;5013779;28;20034;-54
2022/12/20 09:11:20;;;;;;;19.35;14.30;;;6.70;99.90;;;;;;5013998;28;20038;-45
2022/12/20 09:14:07;;;;;;;20.77;16.15;;;6.70;99.90;;;;;;5012898;28;20037;-47
2022/12/20 09:16:52;;;;;;;24.15;16.13;;;6.70;99.90;;;;;;5013774;28;20034;-45
2022/12/20 09:19:38;;;;;;;22.48;15.68;;;6.70;99.90;;;;;;5014638;28;20030;-46
2022/12/20 09:22:24;;;;;;;24.75;15.68;;;6.70;99.90;;;;;;4998127;28;20030;-46
2022/12/20 09:25:10;;;;;;;24.70;17.33;;;6.70;99.90;;;;;;5014561;28;20022;-47
2022/12/20 09:27:56;;;;;;;24.75;17.33;;;6.80;99.90;;;;;;5013761;28;20028;-51
2022/12/20 09:30:42;;;;;;;21.35;15.90;;;6.80;99.90;;;;;;5012815;28;20120;-53
2022/12/20 09:33:29;;;;;;;22.30;16.00;;;6.60;99.90;;;;;;5013377;28;20038;-51
2022/12/20 09:36:18;;;;;;;21.95;16.75;;;6.70;99.90;;;;;;5013084;28;20513;-56
2022/12/20 09:39:04;;;;;;;24.80;16.73;;;6.70;99.90;;;;;;5012583;28;20034;-50
2022/12/20 09:41:50;;;;;;;26.10;17.73;;;6.60;99.90;;;;;;5012552;28;20414;-48
2022/12/20 09:44:39;;;;;;;23.17;17.25;;;6.70;99.90;;;;;;5011700;28;20026;-50
2022/12/20 09:47:26;;;;;;;22.58;17.08;;;6.70;99.90;;;;;;5012782;28;20104;-47
2022/12/20 09:50:16;;;;;;;22.13;16.75;;;6.80;99.90;;;;;;5012851;28;20495;-57
2022/12/20 09:53:18;;;;;;;22.77;16.58;;;6.70;99.90;;;;;;5011351;28;20506;-55
2022/12/20 09:56:40;;;;;;;25.30;17.30;;;6.70;99.90;;;;;;5013785;28;20071;-52
2022/12/20 09:59:26;;;;;;;25.65;18.15;;;6.70;99.90;;;;;;4995579;28;20453;-47
2022/12/20 10:02:19;;;;;;;22.80;17.52;;;6.70;99.90;;;;;;5011396;28;20029;-57
2022/12/20 10:05:29;;;;;;;25.58;18.05;;;6.70;99.90;;;;;;5013444;28;20044;-51
2022/12/20 10:08:43;;;;;;;22.35;17.35;;;6.70;99.90;;;;;;5010594;28;20038;-52
2022/12/20 10:11:36;;;;;;;33.03;23.70;;;6.80;99.90;;;;;;5010929;28;20069;-55
2022/12/20 10:14:22;;;;;;;24.85;18.00;;;6.90;99.90;;;;;;5004362;28;20094;-44
2022/12/20 10:17:26;;;;;;;20.70;15.70;;;6.80;99.90;;;;;;5010624;28;20566;-47
2022/12/20 10:20:29;;;;;;;27.88;17.90;;;6.90;99.90;;;;;;5006311;28;20018;-50
2022/12/20 10:23:25;;;;;;;26.52;17.38;;;7.00;99.90;;;;;;5010928;28;20018;-46
2022/12/20 10:26:12;;;;;;;;;;;7.00;99.90;;;;;;5011035;28;20026;-50
2022/12/20 10:28:58;;;;;;;22.23;16.17;;;7.10;99.90;;;;;;5011879;28;20289;-48
2022/12/20 10:31:44;;;;;;;21.70;16.35;;;7.20;99.90;;;;;;5009561;28;20072;-62
2022/12/20 10:34:30;;;;;;;23.25;17.35;;;7.20;99.90;;;;;;5011671;28;20107;-53
2022/12/20 10:37:16;;;;;;;24.52;17.98;;;7.30;99.90;;;;;;5003688;28;20499;-47
2022/12/20 10:40:02;;;;;;;23.63;18.17;;;7.40;99.90;;;;;;5008805;28;20042;-51
2022/12/20 10:42:49;;;;;;;21.40;17.15;;;7.40;99.90;;;;;;5012803;28;20040;-51
2022/12/20 10:45:39;;;;;;;23.33;17.50;;;7.50;99.90;;;;;;5012983;28;20018;-51
2022/12/20 10:48:40;;;;;;;28.45;19.45;;;7.60;99.90;;;;;;5009970;28;20014;-48
2022/12/20 10:51:26;;;;;;;26.08;18.60;;;7.70;99.90;;;;;;5004655;28;20137;-47
2022/12/20 10:54:23;;;;;;;25.05;18.88;;;7.70;99.90;;;;;;5008328;28;20038;-48
2022/12/20 10:57:20;;;;;;;28.88;18.52;;;7.70;99.90;;;;;;5010897;28;20695;-46
2022/12/20 11:00:25;;;;;;;25.40;18.73;;;7.70;99.90;;;;;;5004507;28;20029;-48
2022/12/20 11:03:11;;;;;;;25.08;18.48;;;7.60;99.90;;;;;;5003446;28;20026;-54
2022/12/20 11:06:01;;;;;;;26.98;19.02;;;7.60;99.90;;;;;;5011363;28;20033;-51
2022/12/20 11:08:47;;;;;;;24.90;17.77;;;7.60;99.90;;;;;;5011171;28;20389;-51
2022/12/20 11:11:33;;;;;;;25.30;18.02;;;7.60;99.90;;;;;;5009266;28;20045;-56
2022/12/20 11:14:19;;;;;;;26.10;18.35;;;7.70;99.90;;;;;;5015885;28;20140;-49
2022/12/20 11:17:22;;;;;;;27.13;19.10;;;7.80;99.90;;;;;;5011683;28;20537;-54
2022/12/20 11:20:25;;;;;;;25.73;18.50;;;7.90;99.90;;;;;;5005231;28;20033;-54
2022/12/20 11:23:40;;;;;;;27.27;19.02;;;7.90;99.90;;;;;;5002160;28;20030;-57
2022/12/20 11:26:51;;;;;;;26.55;19.05;;;8.00;99.90;;;;;;5015990;28;20080;-51
2022/12/20 11:29:52;;;;;;;24.60;18.92;;;8.00;99.90;;;;;;5012361;28;20061;-49
2022/12/20 11:33:10;;;;;;;28.15;20.40;;;7.90;99.90;;;;;;5011992;28;20402;-62
2022/12/20 11:36:22;;;;;;;29.05;18.80;;;7.80;99.90;;;;;;5011236;28;20490;-53
2022/12/20 11:39:40;;;;;;;26.23;17.67;;;7.70;99.90;;;;;;5011570;28;20502;-53
2022/12/20 11:42:53;;;;;;;24.15;17.48;;;7.70;99.90;;;;;;4990772;28;20027;-48
2022/12/20 11:46:05;;;;;;;26.50;17.38;;;7.70;99.90;;;;;;5019308;28;20022;-49
2022/12/20 11:49:01;;;;;;;22.77;16.25;;;7.70;99.90;;;;;;5001711;28;20044;-52
2022/12/20 11:52:14;;;;;;;24.42;17.05;;;7.60;99.90;;;;;;5009186;28;20034;-50
2022/12/20 11:55:03;;;;;;;23.73;17.08;;;7.60;99.90;;;;;;4991547;28;20116;-46
2022/12/20 11:58:08;;;;;;;23.33;16.05;;;7.60;99.90;;;;;;4991708;28;20593;-50
2022/12/20 12:01:06;;;;;;;23.45;16.42;;;7.60;99.90;;;;;;5007593;28;20502;-47
2022/12/20 12:04:32;;;;;;;24.42;16.65;;;7.60;99.90;;;;;;4990920;28;20061;-53
2022/12/20 12:07:22;;;;;;;21.23;16.23;;;7.70;99.90;;;;;;4986069;28;20018;-50
2022/12/20 12:10:32;;;;;;;23.88;16.58;;;7.70;99.90;;;;;;5013086;28;20026;-49
2022/12/20 12:13:26;;;;;;;23.27;17.42;;;7.60;99.90;;;;;;5013049;28;20022;-46
2022/12/20 12:16:17;;;;;;;26.05;17.35;;;7.50;99.90;;;;;;4996220;28;20520;-56
2022/12/20 12:19:09;;;;;;;25.80;16.55;;;7.50;99.90;;;;;;5004163;28;20088;-53
2022/12/20 12:22:08;;;;;;;25.05;17.38;;;7.40;99.90;;;;;;4990844;28;20558;-50
2022/12/20 12:24:59;;;;;;;25.05;18.25;;;7.40;99.90;;;;;;5010028;28;20026;-48
2022/12/20 12:27:45;;;;;;;23.63;16.75;;;7.30;99.90;;;;;;5006733;28;20065;-50
2022/12/20 12:30:39;;;;;;;23.90;16.65;;;7.30;99.90;;;;;;5008310;28;20092;-54
2022/12/20 12:33:33;;;;;;;25.75;17.35;;;7.30;99.90;;;;;;5002606;28;20471;-51
2022/12/20 12:36:40;;;;;;;23.30;16.98;;;7.30;99.90;;;;;;4997940;28;20036;-51
2022/12/20 12:39:37;;;;;;;24.30;16.15;;;7.30;99.90;;;;;;5026539;28;20030;-55
2022/12/20 12:42:35;;;;;;;26.77;16.80;;;7.30;99.90;;;;;;5013976;28;20403;-49
2022/12/20 12:45:32;;;;;;;24.50;16.88;;;7.30;99.90;;;;;;5009656;28;20516;-58
2022/12/20 12:48:21;;;;;;;23.33;16.77;;;7.20;99.90;;;;;;5010948;28;20022;-50
2022/12/20 12:51:08;;;;;;;27.27;18.73;;;7.20;99.90;;;;;;5005837;28;20109;-55
2022/12/20 12:54:08;;;;;;;27.38;18.73;;;7.20;99.90;;;;;;4989718;28;20031;-53
2022/12/20 12:57:05;;;;;;;27.38;19.48;;;7.20;99.90;;;;;;5006081;28;20044;-52
2022/12/20 12:59:51;;;;;;;27.27;18.90;;;7.20;99.90;;;;;;5012160;28;20109;-54
2022/12/20 13:02:50;;;;;;;25.52;17.95;;;7.30;99.90;;;;;;5012739;28;20422;-53
2022/12/20 13:05:36;;;;;;;28.63;19.50;;;7.30;99.90;;;;;;5011467;28;20037;-51
2022/12/20 13:08:47;;;;;;;29.77;20.90;;;7.20;99.90;;;;;;4990552;28;20077;-53
2022/12/20 13:11:42;;;;;;;28.75;21.65;;;7.10;99.90;;;;;;5020325;28;20113;-48
2022/12/20 13:14:28;;;;;;;29.80;21.15;;;7.10;99.90;;;;;;5014535;28;20036;-51
2022/12/20 13:17:16;;;;;;;33.00;21.38;;;7.10;99.90;;;;;;5029080;28;20409;-49
2022/12/20 13:20:35;;;;;;;31.38;20.70;;;7.10;99.90;;;;;;5022599;28;20080;-51
2022/12/20 13:23:21;;;;;;;35.72;22.95;;;7.10;99.90;;;;;;5019822;28;20441;-50
2022/12/20 13:26:50;;;;;;;28.45;21.70;;;7.10;99.90;;;;;;5013953;28;20113;-49
2022/12/20 13:29:52;;;;;;;26.30;19.38;;;7.10;99.90;;;;;;5020797;28;20033;-50
2022/12/20 13:32:48;;;;;;;28.30;20.58;;;7.00;99.90;;;;;;5012552;28;20033;-49
2022/12/20 13:35:54;;;;;;;30.23;21.58;;;7.00;99.90;;;;;;5016952;28;20022;-47
2022/12/20 13:38:50;;;;;;;29.95;21.73;;;7.00;99.90;;;;;;5013769;28;20022;-45
2022/12/20 13:41:38;;;;;;;25.45;17.90;;;7.00;99.90;;;;;;5010546;28;20088;-59
2022/12/20 13:44:33;;;;;;;28.95;21.20;;;7.00;99.90;;;;;;5011476;28;20513;-56
2022/12/20 13:47:32;;;;;;;26.42;18.80;;;7.10;99.90;;;;;;5002890;28;20484;-50
2022/12/20 13:50:49;;;;;;;24.90;18.10;;;7.10;99.90;;;;;;5024415;28;20116;-66
2022/12/20 13:53:37;;;;;;;30.58;20.13;;;7.20;99.90;;;;;;5020377;28;20034;-55
2022/12/20 13:56:25;;;;;;;24.83;18.33;;;7.10;99.90;;;;;;5029915;28;20030;-59
2022/12/20 13:59:23;;;;;;;25.50;18.25;;;7.00;99.90;;;;;;5027484;28;20503;-53
2022/12/20 14:02:17;;;;;;;29.13;19.23;;;7.00;99.90;;;;;;5006536;28;20107;-53
2022/12/20 14:05:25;;;;;;;25.23;17.55;;;6.90;99.90;;;;;;5006565;28;20060;-55
2022/12/20 14:08:24;;;;;;;26.95;18.48;;;6.90;99.90;;;;;;5013397;28;20022;-58
2022/12/20 14:11:14;;;;;;;24.95;16.85;;;6.80;99.90;;;;;;5013503;28;20037;-45
2022/12/20 14:14:03;;;;;;;26.45;17.38;;;6.90;99.90;;;;;;5012648;28;20030;-51
2022/12/20 14:16:49;;;;;;;27.90;18.95;;;6.90;99.90;;;;;;5012684;28;20049;-58
2022/12/20 14:19:35;;;;;;;26.15;17.88;;;6.90;99.90;;;;;;5006148;28;20571;-53
2022/12/20 14:22:21;;;;;;;26.50;19.00;;;6.80;99.90;;;;;;4993284;28;20531;-49
2022/12/20 14:25:08;;;;;;;27.52;17.83;;;6.80;99.90;;;;;;4993868;28;20145;-47
2022/12/20 14:27:55;;;;;;;27.27;17.60;;;6.80;99.90;;;;;;4999148;28;20522;-54
2022/12/20 14:30:42;;;;;;;26.00;18.02;;;6.90;99.90;;;;;;4999971;28;20037;-46
2022/12/20 14:33:30;;;;;;;25.48;18.88;;;6.90;99.90;;;;;;4999393;28;20451;-53
2022/12/20 14:36:16;;;;;;;26.55;19.42;;;6.90;99.90;;;;;;5021262;28;20028;-52
2022/12/20 14:39:22;;;;;;;25.02;17.13;;;6.90;99.90;;;;;;5019630;28;20037;-54
2022/12/20 14:42:08;;;;;;;;;;;6.90;99.90;;;;;;5005865;28;20026;-47
2022/12/20 14:45:14;;;;;;;23.02;16.10;;;6.80;99.90;;;;;;5010044;28;20004;-52